Time;durP1;ratioP1;P1;durP2;ratioP2;P2;SDS_P1;SDS_P2;PMS_P1;PMS_P2;Temp;Humidity;BMP_temperature;BMP_pressure;BME280_temperature;BME280_humidity;BME280_pressure;Samples;Min_cycle;Max_cycle;Signal;HPM_P1;HPM_P2
2022/10/28 00:01:15;;;;;;;1.67;0.70;;;22.30;51.70;;;;;;4995210;28;20396;-82
2022/10/28 00:03:54;;;;;;;1.50;0.70;;;22.30;50.10;;;;;;5003493;28;20495;-83
2022/10/28 00:06:26;;;;;;;1.50;0.80;;;22.40;51.40;;;;;;4998419;28;20391;-82
2022/10/28 00:08:54;;;;;;;4.07;0.80;;;22.40;49.60;;;;;;4995642;28;20883;-82
2022/10/28 00:11:24;;;;;;;3.67;0.82;;;22.50;49.80;;;;;;4997035;28;20919;-80
2022/10/28 00:13:54;;;;;;;9.50;1.30;;;22.60;49.90;;;;;;4999406;28;20875;-82
2022/10/28 00:16:24;;;;;;;5.60;0.70;;;22.50;48.60;;;;;;5001398;28;20427;-81
2022/10/28 00:18:52;;;;;;;5.78;0.93;;;22.50;49.10;;;;;;5004730;28;20365;-81
2022/10/28 00:21:23;;;;;;;1.63;0.70;;;22.60;49.00;;;;;;5002244;28;20380;-83
2022/10/28 00:23:50;;;;;;;4.33;0.70;;;22.60;48.60;;;;;;5004720;28;20429;-83
2022/10/28 00:26:21;;;;;;;1.20;0.70;;;22.80;50.20;;;;;;5014194;28;20380;-82
2022/10/28 00:28:50;;;;;;;2.67;0.60;;;22.90;48.70;;;;;;5014065;28;20373;-83
2022/10/28 00:31:20;;;;;;;2.25;0.70;;;22.90;49.60;;;;;;5011403;28;20371;-84
2022/10/28 00:33:47;;;;;;;1.67;0.70;;;22.90;47.70;;;;;;5005325;28;20384;-84
2022/10/28 00:36:23;;;;;;;3.05;0.60;;;23.00;49.20;;;;;;5007070;28;20396;-84
2022/10/28 00:38:52;;;;;;;2.05;0.70;;;23.10;48.10;;;;;;5009339;28;20423;-82
2022/10/28 00:41:34;;;;;;;2.85;0.65;;;23.00;48.70;;;;;;5016711;28;20380;-85
2022/10/28 00:44:21;;;;;;;2.65;0.70;;;23.00;46.80;;;;;;5012681;28;20457;-86
2022/10/28 00:46:52;;;;;;;3.60;0.70;;;23.00;47.20;;;;;;5003252;28;20387;-82
2022/10/28 00:49:26;;;;;;;3.42;0.70;;;23.10;47.30;;;;;;5008862;28;20389;-84
2022/10/28 00:51:57;;;;;;;1.83;0.70;;;23.00;47.10;;;;;;5002721;28;20416;-83
2022/10/28 00:54:25;;;;;;;3.80;0.70;;;23.30;48.20;;;;;;4994098;28;20442;-84
2022/10/28 00:56:54;;;;;;;2.10;0.75;;;23.70;46.80;;;;;;4994567;28;20409;-81
2022/10/28 00:59:37;;;;;;;2.30;0.70;;;23.80;47.30;;;;;;4996161;28;20466;-80
2022/10/28 01:02:05;;;;;;;2.50;0.70;;;23.70;46.20;;;;;;4994425;28;20396;-82
2022/10/28 01:04:32;;;;;;;3.00;0.70;;;23.60;46.90;;;;;;4993910;28;20460;-81
2022/10/28 01:07:00;;;;;;;2.17;0.90;;;23.60;47.70;;;;;;4993840;28;20380;-82
2022/10/28 01:09:27;;;;;;;1.58;0.60;;;23.70;46.80;;;;;;4994008;28;20381;-82
2022/10/28 01:12:31;;;;;;;1.60;0.50;;;23.80;47.20;;;;;;4980591;28;20479;-83
2022/10/28 01:15:09;;;;;;;2.63;0.80;;;23.60;45.60;;;;;;4992192;28;20397;-83
2022/10/28 01:17:35;;;;;;;1.27;0.50;;;23.90;47.40;;;;;;4993707;28;20384;-83
2022/10/28 01:20:27;;;;;;;1.73;0.57;;;23.70;45.90;;;;;;5007405;28;20377;-82
2022/10/28 01:23:06;;;;;;;1.17;0.45;;;23.90;46.70;;;;;;4993731;28;20789;-82
2022/10/28 01:25:58;;;;;;;1.17;0.50;;;23.40;44.40;;;;;;4993309;28;20391;-84
2022/10/28 01:28:53;;;;;;;3.80;0.70;;;23.50;46.10;;;;;;4993071;28;20388;-83
2022/10/28 01:31:26;;;;;;;1.35;0.50;;;24.30;46.20;;;;;;4971623;28;20478;-84
2022/10/28 01:34:28;;;;;;;1.73;0.73;;;24.60;45.20;;;;;;4971188;28;20462;-84
2022/10/28 01:37:17;;;;;;;1.48;0.60;;;24.60;46.70;;;;;;4971199;28;20506;-81
2022/10/28 01:40:25;;;;;;;1.80;0.60;;;24.80;45.10;;;;;;4971322;28;20370;-81
2022/10/28 01:43:01;;;;;;;1.70;0.55;;;24.90;44.30;;;;;;4970995;28;20394;-83
2022/10/28 01:45:35;;;;;;;1.48;0.50;;;24.90;43.00;;;;;;4971208;28;20378;-82
2022/10/28 01:48:11;;;;;;;0.70;0.40;;;25.20;43.20;;;;;;4970888;28;20387;-83
2022/10/28 01:50:52;;;;;;;1.10;0.40;;;25.00;42.50;;;;;;4970780;28;20966;-82
2022/10/28 01:53:24;;;;;;;1.30;0.57;;;25.10;42.60;;;;;;4958673;28;20383;-81
2022/10/28 01:55:54;;;;;;;1.30;0.55;;;25.40;43.60;;;;;;4971005;28;20430;-84
2022/10/28 01:58:26;;;;;;;0.60;0.43;;;25.80;44.10;;;;;;4970996;28;20406;-84
2022/10/28 02:00:53;;;;;;;2.60;0.80;;;26.20;44.00;;;;;;4971000;28;20395;-83
2022/10/28 02:03:21;;;;;;;2.35;0.60;;;26.70;43.50;;;;;;4970676;28;20482;-82
2022/10/28 02:05:52;;;;;;;0.95;0.50;;;26.80;42.10;;;;;;4970838;28;20420;-82
2022/10/28 02:08:19;;;;;;;1.80;0.40;;;26.70;41.30;;;;;;4994896;28;20925;-83
2022/10/28 02:10:55;;;;;;;1.10;0.40;;;26.50;41.70;;;;;;4992326;28;20393;-84
2022/10/28 02:13:38;;;;;;;1.00;0.40;;;26.50;40.20;;;;;;4992207;28;20459;-82
2022/10/28 02:16:27;;;;;;;0.75;0.40;;;26.30;40.70;;;;;;4992335;28;20433;-82
2022/10/28 02:19:00;;;;;;;2.13;0.40;;;26.40;40.80;;;;;;4992417;28;20421;-82
2022/10/28 02:21:47;;;;;;;0.65;0.40;;;26.60;41.10;;;;;;4992046;28;20390;-84
2022/10/28 02:24:29;;;;;;;0.98;0.50;;;26.20;41.60;;;;;;4950915;28;20390;-81
2022/10/28 02:27:17;;;;;;;0.93;0.40;;;26.30;41.10;;;;;;4951277;28;20420;-82
2022/10/28 02:29:53;;;;;;;1.25;0.50;;;26.20;41.10;;;;;;4941240;28;20399;-88
2022/10/28 02:32:24;;;;;;;1.30;0.40;;;26.80;42.20;;;;;;4952764;28;20399;-82
2022/10/28 02:34:57;;;;;;;1.83;0.60;;;26.60;40.60;;;;;;4950741;28;20404;-82
2022/10/28 02:37:32;;;;;;;1.70;0.65;;;26.70;41.80;;;;;;4950724;28;20410;-81
2022/10/28 02:40:07;;;;;;;5.20;0.80;;;26.60;39.90;;;;;;4950913;28;20395;-82
2022/10/28 02:42:37;;;;;;;3.07;0.60;;;26.30;40.00;;;;;;4950616;28;20398;-82
2022/10/28 02:45:20;;;;;;;1.98;0.50;;;26.10;40.90;;;;;;4950750;28;20424;-82
2022/10/28 02:47:54;;;;;;;3.28;0.80;;;26.30;40.90;;;;;;4950420;28;20404;-83
2022/10/28 02:50:28;;;;;;;3.65;0.70;;;26.90;41.60;;;;;;4949460;28;20495;-83
2022/10/28 02:52:58;;;;;;;0.55;0.40;;;27.00;40.40;;;;;;4950656;28;20392;-83
2022/10/28 02:55:34;;;;;;;3.80;0.70;;;27.10;40.20;;;;;;4950383;28;20419;-83
2022/10/28 02:58:01;;;;;;;2.60;0.60;;;27.00;40.80;;;;;;4950484;28;20475;-82
2022/10/28 03:00:28;;;;;;;0.95;0.40;;;26.50;40.70;;;;;;4956704;28;20389;-82
2022/10/28 03:02:55;;;;;;;1.17;0.45;;;26.30;40.60;;;;;;4991428;28;20380;-81
2022/10/28 03:05:22;;;;;;;1.00;0.45;;;25.50;41.10;;;;;;4991295;28;20393;-84
2022/10/28 03:07:49;;;;;;;1.35;0.40;;;25.00;42.40;;;;;;4990576;28;20416;-81
2022/10/28 03:10:16;;;;;;;3.40;0.60;;;25.40;44.10;;;;;;4991348;28;20388;-82
2022/10/28 03:12:43;;;;;;;2.15;0.52;;;25.30;42.10;;;;;;4991406;28;20417;-84
2022/10/28 03:15:11;;;;;;;2.67;0.50;;;24.80;42.80;;;;;;4990930;28;20726;-84
2022/10/28 03:17:39;;;;;;;1.83;0.50;;;25.30;42.90;;;;;;4991339;28;20393;-83
2022/10/28 03:20:06;;;;;;;0.90;0.50;;;25.40;42.70;;;;;;4990883;28;20381;-84
2022/10/28 03:22:33;;;;;;;1.25;0.43;;;24.70;42.30;;;;;;4991103;28;20491;-83
2022/10/28 03:25:00;;;;;;;1.70;0.60;;;25.70;43.20;;;;;;4991087;28;20972;-83
2022/10/28 03:27:27;;;;;;;0.70;0.40;;;26.80;42.10;;;;;;4991150;28;20400;-85
2022/10/28 03:29:54;;;;;;;1.63;0.50;;;26.90;39.40;;;;;;4991084;28;20852;-84
2022/10/28 03:32:21;;;;;;;1.15;0.50;;;27.00;40.00;;;;;;4990998;28;20393;-86
2022/10/28 03:34:48;;;;;;;2.07;0.40;;;26.90;38.60;;;;;;4990834;28;20381;-84
2022/10/28 03:37:15;;;;;;;1.88;0.50;;;26.30;38.90;;;;;;4991169;28;20405;-82
2022/10/28 03:39:42;;;;;;;2.13;0.60;;;26.00;41.10;;;;;;4990834;28;20403;-83
2022/10/28 03:42:09;;;;;;;4.63;0.70;;;26.60;39.70;;;;;;4991049;28;20400;-80
2022/10/28 03:44:36;;;;;;;2.10;0.52;;;26.90;38.60;;;;;;4990690;28;20447;-84
2022/10/28 03:47:03;;;;;;;2.20;0.57;;;26.70;38.20;;;;;;4991031;28;20393;-82
2022/10/28 03:49:30;;;;;;;1.10;0.40;;;26.60;40.20;;;;;;4990439;28;20511;-82
2022/10/28 03:51:57;;;;;;;0.80;0.50;;;26.70;39.90;;;;;;4991034;28;20385;-82
2022/10/28 03:54:24;;;;;;;1.58;0.50;;;26.80;38.90;;;;;;4990763;28;20473;-81
2022/10/28 03:56:51;;;;;;;1.15;0.52;;;26.90;39.70;;;;;;4990816;28;20511;-81
2022/10/28 03:59:18;;;;;;;1.88;0.65;;;26.00;39.10;;;;;;4990789;28;20388;-82
2022/10/28 04:01:45;;;;;;;2.75;0.60;;;25.20;41.30;;;;;;4990523;28;20471;-81
2022/10/28 04:04:12;;;;;;;1.13;0.40;;;26.10;41.00;;;;;;4990513;28;20789;-83
2022/10/28 04:06:39;;;;;;;2.80;0.80;;;26.30;40.30;;;;;;4990424;28;20381;-79
2022/10/28 04:09:06;;;;;;;2.38;0.60;;;26.50;40.80;;;;;;4981766;28;20388;-82
2022/10/28 04:11:32;;;;;;;3.35;0.57;;;26.90;41.10;;;;;;4990315;28;20393;-82
2022/10/28 04:13:59;;;;;;;1.85;0.50;;;27.00;40.20;;;;;;4990844;28;20381;-82
2022/10/28 04:16:26;;;;;;;2.00;0.60;;;26.80;39.60;;;;;;4990464;28;20408;-80
2022/10/28 04:18:54;;;;;;;5.70;0.90;;;27.00;40.90;;;;;;4990690;28;20908;-79
2022/10/28 04:21:21;;;;;;;1.70;0.47;;;27.00;40.60;;;;;;4990770;28;20381;-81
2022/10/28 04:23:48;;;;;;;2.40;0.70;;;26.80;39.80;;;;;;4990685;28;20510;-79
2022/10/28 04:26:15;;;;;;;2.00;0.30;;;26.90;39.50;;;;;;4990459;28;20393;-83
2022/10/28 04:28:41;;;;;;;2.20;0.45;;;26.30;39.70;;;;;;4990562;28;20874;-81
2022/10/28 04:31:11;;;;;;;2.47;0.60;;;27.00;40.00;;;;;;4991615;28;20948;-81
2022/10/28 04:33:38;;;;;;;1.85;0.40;;;26.70;39.80;;;;;;4994199;28;20837;-79
2022/10/28 04:36:05;;;;;;;3.97;0.70;;;26.40;38.90;;;;;;4994478;28;20405;-84
2022/10/28 04:38:32;;;;;;;1.33;0.50;;;26.40;40.40;;;;;;4996091;28;20411;-83
2022/10/28 04:40:59;;;;;;;2.30;0.40;;;27.00;39.40;;;;;;4995012;28;20904;-80
2022/10/28 04:43:26;;;;;;;2.90;0.50;;;25.70;39.70;;;;;;4994549;28;20380;-80
2022/10/28 04:45:53;;;;;;;2.40;0.50;;;25.80;40.50;;;;;;4994914;28;20421;-84
2022/10/28 04:48:20;;;;;;;3.10;0.50;;;26.50;40.20;;;;;;4995465;28;20996;-82
2022/10/28 04:50:48;;;;;;;3.23;0.70;;;26.80;40.00;;;;;;4993824;28;20510;-84
2022/10/28 04:53:15;;;;;;;2.40;0.50;;;26.70;39.50;;;;;;4994660;28;20464;-83
2022/10/28 04:55:41;;;;;;;0.75;0.40;;;26.60;39.90;;;;;;4994491;28;20749;-84
2022/10/28 04:58:09;;;;;;;1.42;0.50;;;26.60;40.20;;;;;;4996036;28;20979;-79
2022/10/28 05:00:36;;;;;;;2.85;0.50;;;26.80;39.40;;;;;;4996998;28;20377;-82
2022/10/28 05:03:03;;;;;;;3.40;0.40;;;26.80;39.90;;;;;;4995706;28;20423;-81
2022/10/28 05:05:31;;;;;;;0.63;0.40;;;27.30;38.70;;;;;;4996002;28;20381;-87
2022/10/28 05:07:58;;;;;;;1.33;0.40;;;27.00;38.80;;;;;;4995429;28;20963;-81
2022/10/28 05:10:25;;;;;;;3.43;0.57;;;26.90;38.90;;;;;;4995282;28;20408;-80
2022/10/28 05:12:52;;;;;;;0.80;0.30;;;26.20;38.80;;;;;;4994339;28;20408;-84
2022/10/28 05:15:20;;;;;;;3.72;0.82;;;26.20;40.20;;;;;;4994543;28;20423;-81
2022/10/28 05:17:47;;;;;;;2.83;0.40;;;26.60;39.40;;;;;;4993464;28;20413;-80
2022/10/28 05:20:17;;;;;;;2.20;0.50;;;26.40;38.00;;;;;;4993143;28;20385;-81
2022/10/28 05:22:55;;;;;;;1.88;0.40;;;25.90;38.50;;;;;;4993264;28;20424;-82
2022/10/28 05:25:23;;;;;;;0.95;0.40;;;25.80;39.50;;;;;;4992960;28;20401;-81
2022/10/28 05:27:50;;;;;;;2.70;0.50;;;26.20;38.60;;;;;;4993761;28;20377;-80
2022/10/28 05:30:18;;;;;;;1.47;0.50;;;26.20;39.50;;;;;;4993059;28;20783;-79
2022/10/28 05:32:45;;;;;;;1.50;0.40;;;26.70;38.30;;;;;;4992954;28;20403;-82
2022/10/28 05:35:12;;;;;;;2.83;0.60;;;26.50;38.20;;;;;;4975530;28;20867;-79
2022/10/28 05:37:39;;;;;;;1.10;0.40;;;25.90;38.50;;;;;;4995208;28;20400;-78
2022/10/28 05:40:07;;;;;;;0.52;0.40;;;25.70;38.90;;;;;;4994603;28;20857;-82
2022/10/28 05:42:39;;;;;;;2.08;0.50;;;25.60;38.70;;;;;;4997788;28;20388;-79
2022/10/28 05:45:07;;;;;;;0.90;0.45;;;25.80;40.20;;;;;;5004271;28;20714;-80
2022/10/28 05:47:34;;;;;;;1.35;0.40;;;25.80;40.00;;;;;;4993527;28;20389;-82
2022/10/28 05:50:01;;;;;;;2.88;0.50;;;26.40;40.20;;;;;;4994105;28;20397;-79
2022/10/28 05:52:28;;;;;;;1.85;0.50;;;26.10;39.00;;;;;;4995020;28;20381;-76
2022/10/28 05:54:55;;;;;;;2.67;0.55;;;26.20;39.70;;;;;;4994147;28;20376;-82
2022/10/28 05:57:22;;;;;;;2.72;0.43;;;25.70;39.90;;;;;;4992541;28;20408;-79
2022/10/28 05:59:49;;;;;;;2.47;0.60;;;25.50;39.90;;;;;;4998749;28;20840;-81
2022/10/28 06:02:16;;;;;;;4.53;0.60;;;25.10;40.10;;;;;;4994661;28;20383;-80
2022/10/28 06:04:43;;;;;;;3.72;0.57;;;25.20;40.60;;;;;;4995587;28;20396;-78
2022/10/28 06:07:10;;;;;;;1.02;0.50;;;25.60;40.50;;;;;;4994307;28;20468;-82
2022/10/28 06:09:37;;;;;;;2.90;0.40;;;25.70;40.70;;;;;;4994227;28;20789;-82
2022/10/28 06:12:07;;;;;;;1.60;0.50;;;25.50;39.50;;;;;;4994920;28;20749;-80
2022/10/28 06:14:34;;;;;;;1.83;0.47;;;25.20;40.20;;;;;;4998137;28;20388;-82
2022/10/28 06:17:01;;;;;;;7.53;0.93;;;24.80;40.70;;;;;;4995438;28;20964;-81
2022/10/28 06:19:28;;;;;;;2.40;0.50;;;24.60;41.10;;;;;;4993888;28;20396;-85
2022/10/28 06:21:55;;;;;;;0.82;0.40;;;24.90;40.60;;;;;;4995065;28;20396;-81
2022/10/28 06:24:22;;;;;;;1.23;0.45;;;24.90;40.90;;;;;;4993919;28;20911;-79
2022/10/28 06:26:49;;;;;;;1.70;0.40;;;25.30;42.20;;;;;;5001677;28;20411;-82
2022/10/28 06:29:16;;;;;;;2.38;0.60;;;25.10;40.20;;;;;;4992280;28;20419;-83
2022/10/28 06:31:43;;;;;;;5.03;0.60;;;25.00;40.50;;;;;;4994679;28;20400;-81
2022/10/28 06:34:11;;;;;;;2.78;0.40;;;25.40;40.50;;;;;;4992762;28;20424;-79
2022/10/28 06:36:39;;;;;;;3.33;0.70;;;25.30;39.60;;;;;;4992895;28;20412;-81
2022/10/28 06:39:06;;;;;;;3.05;0.57;;;25.10;40.60;;;;;;4993084;28;20381;-76
2022/10/28 06:41:34;;;;;;;1.83;0.40;;;25.00;40.60;;;;;;4996364;28;20396;-81
2022/10/28 06:44:01;;;;;;;1.13;0.40;;;24.60;40.20;;;;;;4995017;28;20936;-79
2022/10/28 06:46:29;;;;;;;2.35;0.40;;;24.20;40.70;;;;;;4995197;28;20397;-82
2022/10/28 06:48:56;;;;;;;1.55;0.50;;;24.30;40.60;;;;;;4994982;28;20513;-83
2022/10/28 06:51:24;;;;;;;1.13;0.50;;;24.30;40.90;;;;;;4995556;28;20396;-83
2022/10/28 06:53:52;;;;;;;0.82;0.50;;;24.30;40.70;;;;;;4993981;28;20885;-81
2022/10/28 06:56:19;;;;;;;2.15;0.50;;;24.10;41.10;;;;;;4994655;28;20419;-81
2022/10/28 06:58:55;;;;;;;1.83;0.60;;;24.30;41.30;;;;;;4995511;28;20447;-82
2022/10/28 07:01:22;;;;;;;2.00;0.50;;;24.60;42.00;;;;;;4995647;28;20826;-82
2022/10/28 07:03:49;;;;;;;4.35;0.50;;;24.90;40.70;;;;;;4993884;28;20385;-82
2022/10/28 07:06:23;;;;;;;1.02;0.40;;;24.70;40.80;;;;;;4992035;28;20482;-79
2022/10/28 07:08:50;;;;;;;2.13;0.40;;;24.30;41.00;;;;;;4991459;28;20557;-81
2022/10/28 07:11:19;;;;;;;2.25;0.50;;;24.40;41.50;;;;;;4993757;28;20388;-78
2022/10/28 07:13:46;;;;;;;4.30;0.70;;;24.60;42.00;;;;;;4991939;28;20395;-83
2022/10/28 07:16:13;;;;;;;1.48;0.60;;;24.70;40.70;;;;;;4991278;28;20418;-82
2022/10/28 07:18:40;;;;;;;2.67;0.80;;;24.50;40.80;;;;;;4992424;28;20385;-81
2022/10/28 07:21:07;;;;;;;3.13;0.80;;;24.00;41.80;;;;;;4991229;28;20409;-80
2022/10/28 07:23:34;;;;;;;1.60;0.57;;;23.50;41.50;;;;;;4993805;28;20393;-81
2022/10/28 07:26:02;;;;;;;2.88;0.80;;;23.20;41.90;;;;;;4989919;28;20401;-82
2022/10/28 07:28:29;;;;;;;1.93;0.70;;;23.10;43.10;;;;;;4991114;28;20759;-82
2022/10/28 07:31:01;;;;;;;1.13;0.50;;;23.00;42.90;;;;;;4990012;28;20513;-81
2022/10/28 07:33:28;;;;;;;6.72;0.88;;;22.60;43.90;;;;;;4989849;28;20432;-81
2022/10/28 07:35:55;;;;;;;4.78;0.80;;;22.20;43.90;;;;;;5020988;28;20401;-82
2022/10/28 07:38:22;;;;;;;2.63;0.40;;;22.20;45.10;;;;;;4990012;28;20393;-84
2022/10/28 07:40:49;;;;;;;4.85;0.50;;;22.10;45.20;;;;;;4990108;28;20384;-84
2022/10/28 07:43:16;;;;;;;1.70;0.40;;;22.30;44.30;;;;;;4985833;28;20742;-84
2022/10/28 07:45:43;;;;;;;1.20;0.35;;;22.40;43.30;;;;;;4990436;28;20455;-80
2022/10/28 07:48:10;;;;;;;1.60;0.30;;;22.30;43.00;;;;;;4991187;28;20861;-81
2022/10/28 07:50:38;;;;;;;2.70;0.40;;;22.40;44.00;;;;;;4994579;28;20413;-83
2022/10/28 07:53:05;;;;;;;1.70;0.40;;;22.40;43.80;;;;;;5004691;28;20474;-80
2022/10/28 07:55:32;;;;;;;0.80;0.40;;;22.20;43.60;;;;;;5003074;28;20408;-80
2022/10/28 07:57:59;;;;;;;1.35;0.40;;;22.10;44.40;;;;;;4992887;28;20446;-79
2022/10/28 08:00:26;;;;;;;2.80;0.45;;;22.10;44.70;;;;;;4991936;28;20884;-81
2022/10/28 08:02:53;;;;;;;2.47;0.43;;;21.80;44.70;;;;;;4990891;28;20891;-81
2022/10/28 08:05:20;;;;;;;0.90;0.40;;;21.40;45.30;;;;;;4985722;28;20412;-82
2022/10/28 08:07:47;;;;;;;2.47;0.40;;;21.00;45.50;;;;;;4996010;28;20756;-79
2022/10/28 08:10:14;;;;;;;2.20;0.40;;;20.90;46.70;;;;;;4994099;28;20885;-78
2022/10/28 08:12:41;;;;;;;0.73;0.35;;;20.80;46.90;;;;;;5007959;28;20375;-77
2022/10/28 08:15:09;;;;;;;2.53;0.40;;;20.70;47.00;;;;;;4996292;28;20500;-80
2022/10/28 08:17:36;;;;;;;0.53;0.30;;;20.60;47.50;;;;;;4994121;28;20412;-80
2022/10/28 08:20:04;;;;;;;0.80;0.40;;;20.50;47.40;;;;;;4993744;28;20384;-79
2022/10/28 08:22:31;;;;;;;1.67;0.50;;;20.50;47.90;;;;;;4995043;28;20393;-78
2022/10/28 08:24:58;;;;;;;1.45;0.50;;;20.40;48.00;;;;;;4994079;28;20483;-79
2022/10/28 08:27:25;;;;;;;0.98;0.52;;;20.30;48.40;;;;;;4994056;28;20407;-81
2022/10/28 08:29:52;;;;;;;2.15;0.43;;;20.20;49.00;;;;;;4994066;28;20381;-80
2022/10/28 08:32:19;;;;;;;1.40;0.40;;;20.10;49.70;;;;;;4993609;28;20380;-81
2022/10/28 08:34:46;;;;;;;1.33;0.50;;;20.10;49.50;;;;;;4991858;28;20433;-78
2022/10/28 08:37:15;;;;;;;1.70;0.60;;;20.00;50.00;;;;;;4993730;28;20906;-78
2022/10/28 08:39:42;;;;;;;0.60;0.45;;;20.00;50.00;;;;;;4994680;28;20385;-80
2022/10/28 08:42:27;;;;;;;1.25;0.40;;;19.90;50.00;;;;;;5009493;28;20392;-78
2022/10/28 08:45:20;;;;;;;0.70;0.40;;;20.00;50.30;;;;;;4994490;28;20369;-77
2022/10/28 08:47:52;;;;;;;0.80;0.40;;;19.90;50.40;;;;;;4971925;28;20422;-79
2022/10/28 08:50:22;;;;;;;1.30;0.50;;;20.00;50.40;;;;;;4974636;28;20395;-78
2022/10/28 08:53:04;;;;;;;2.40;0.50;;;19.90;50.70;;;;;;4972654;28;20378;-82
2022/10/28 08:55:39;;;;;;;1.17;0.45;;;19.80;51.10;;;;;;4973949;28;20426;-79
2022/10/28 08:58:08;;;;;;;2.28;0.80;;;19.60;51.80;;;;;;4971289;28;20396;-80
2022/10/28 09:00:36;;;;;;;2.63;1.13;;;19.50;51.60;;;;;;4973759;28;20937;-80
2022/10/28 09:03:23;;;;;;;2.78;0.80;;;19.40;51.80;;;;;;4973133;28;20437;-78
2022/10/28 09:06:21;;;;;;;2.35;0.40;;;19.40;52.30;;;;;;4975211;28;20393;-80
2022/10/28 09:08:50;;;;;;;2.70;0.60;;;19.40;52.30;;;;;;4915863;29;20411;-79
2022/10/28 09:11:38;;;;;;;1.88;0.47;;;19.30;53.20;;;;;;4916699;29;20415;-79
2022/10/28 09:14:08;;;;;;;2.20;0.50;;;19.30;52.40;;;;;;4915674;29;20886;-79
2022/10/28 09:17:07;;;;;;;3.15;0.60;;;19.30;53.00;;;;;;4914873;29;20462;-78
2022/10/28 09:19:51;;;;;;;3.85;0.85;;;19.20;53.30;;;;;;4915269;29;20391;-80
2022/10/28 09:22:49;;;;;;;1.25;0.80;;;19.10;53.80;;;;;;4914577;29;20467;-81
2022/10/28 09:25:28;;;;;;;1.38;0.80;;;19.10;53.60;;;;;;4939359;28;20423;-81
2022/10/28 09:28:19;;;;;;;2.47;0.80;;;19.10;53.50;;;;;;4954234;28;20432;-79
2022/10/28 09:31:01;;;;;;;1.70;1.00;;;19.20;53.00;;;;;;4956198;28;20501;-80
2022/10/28 09:33:30;;;;;;;2.00;0.90;;;19.10;53.20;;;;;;4937240;29;20404;-78
2022/10/28 09:35:58;;;;;;;1.85;0.90;;;19.10;53.00;;;;;;4952721;28;20427;-82
2022/10/28 09:38:36;;;;;;;1.08;0.70;;;19.20;53.50;;;;;;4953070;28;20391;-81
2022/10/28 09:41:26;;;;;;;1.40;0.68;;;19.20;53.30;;;;;;4951718;28;20407;-83
2022/10/28 09:44:04;;;;;;;2.37;0.60;;;19.20;53.10;;;;;;4953061;28;20501;-80
2022/10/28 09:46:33;;;;;;;1.30;0.80;;;19.20;53.20;;;;;;4993581;28;20479;-82
2022/10/28 09:49:05;;;;;;;1.15;0.80;;;19.10;53.40;;;;;;4995776;28;20427;-79
2022/10/28 09:51:44;;;;;;;0.82;0.50;;;19.10;54.00;;;;;;4991754;28;20405;-82
2022/10/28 09:54:13;;;;;;;2.10;0.57;;;19.10;54.80;;;;;;4992640;28;20424;-82
2022/10/28 09:56:41;;;;;;;1.52;0.50;;;19.10;53.50;;;;;;4992632;28;20978;-81
2022/10/28 09:59:13;;;;;;;1.77;0.68;;;19.10;53.90;;;;;;4993986;28;20748;-82
2022/10/28 10:01:44;;;;;;;1.42;0.60;;;19.00;54.10;;;;;;4992545;28;20962;-81
2022/10/28 10:04:20;;;;;;;1.57;0.60;;;19.00;54.40;;;;;;4976095;28;20439;-81
2022/10/28 10:06:56;;;;;;;1.50;0.50;;;18.90;54.10;;;;;;4994147;28;20734;-81
2022/10/28 10:09:32;;;;;;;0.63;0.50;;;18.90;54.20;;;;;;4992933;28;20389;-80
2022/10/28 10:12:09;;;;;;;1.85;0.60;;;18.90;54.60;;;;;;4993692;28;20408;-80
2022/10/28 10:14:53;;;;;;;1.33;0.50;;;18.70;54.50;;;;;;4981140;28;20381;-79
2022/10/28 10:17:35;;;;;;;1.83;0.60;;;18.60;55.30;;;;;;4991970;28;20409;-80
2022/10/28 10:20:20;;;;;;;1.83;0.60;;;18.60;54.90;;;;;;4992209;28;20924;-77
2022/10/28 10:22:49;;;;;;;1.38;0.60;;;18.60;55.40;;;;;;4991339;28;20892;-79
2022/10/28 10:25:19;;;;;;;1.95;0.55;;;18.50;55.40;;;;;;4991369;28;20380;-83
2022/10/28 10:28:02;;;;;;;2.13;0.70;;;18.50;55.60;;;;;;4992318;28;20781;-80
2022/10/28 10:30:39;;;;;;;2.05;0.73;;;18.50;56.10;;;;;;4991027;28;20384;-82
2022/10/28 10:33:16;;;;;;;1.35;0.80;;;18.40;56.60;;;;;;4991945;28;20416;-82
2022/10/28 10:35:52;;;;;;;1.17;0.70;;;18.30;56.60;;;;;;4991655;28;20826;-78
2022/10/28 10:38:19;;;;;;;1.00;0.50;;;18.30;56.30;;;;;;4991193;28;20896;-80
2022/10/28 10:40:51;;;;;;;1.00;0.50;;;18.30;56.40;;;;;;4995968;28;20396;-80
2022/10/28 10:43:23;;;;;;;2.53;0.57;;;18.30;56.10;;;;;;4991050;28;20393;-81
2022/10/28 10:45:59;;;;;;;2.80;0.68;;;18.30;56.20;;;;;;4991017;28;20381;-79
2022/10/28 10:48:27;;;;;;;1.70;0.80;;;18.40;56.40;;;;;;4989159;28;20956;-82
2022/10/28 10:50:55;;;;;;;2.45;0.90;;;18.40;56.50;;;;;;4991041;28;20421;-79
2022/10/28 10:53:27;;;;;;;1.48;0.90;;;18.30;57.00;;;;;;4991363;28;20408;-81
2022/10/28 10:56:01;;;;;;;2.38;0.90;;;18.20;57.00;;;;;;4990969;28;20397;-81
2022/10/28 10:58:53;;;;;;;2.43;0.70;;;18.10;57.60;;;;;;4990611;28;20397;-80
2022/10/28 11:01:28;;;;;;;0.60;0.47;;;18.10;57.70;;;;;;4991345;28;20812;-79
2022/10/28 11:04:00;;;;;;;1.65;0.63;;;18.00;57.60;;;;;;4990696;28;20788;-81
2022/10/28 11:06:35;;;;;;;1.38;0.70;;;18.00;58.00;;;;;;4990900;28;20464;-78
2022/10/28 11:09:05;;;;;;;4.10;2.50;;;17.90;58.50;;;;;;4991011;28;20396;-78
2022/10/28 11:11:38;;;;;;;2.40;1.45;;;17.90;58.50;;;;;;4990993;28;20389;-81
2022/10/28 11:14:12;;;;;;;2.00;0.75;;;17.90;58.00;;;;;;4990782;28;20467;-81
2022/10/28 11:16:59;;;;;;;3.05;0.80;;;17.90;58.20;;;;;;4990807;28;20761;-81
2022/10/28 11:19:35;;;;;;;2.03;0.50;;;17.80;58.90;;;;;;4991041;28;20380;-81
2022/10/28 11:22:24;;;;;;;0.77;0.50;;;17.80;59.00;;;;;;4990664;28;20423;-78
2022/10/28 11:25:09;;;;;;;1.83;0.50;;;17.80;58.70;;;;;;4990470;28;20484;-81
2022/10/28 11:28:05;;;;;;;1.77;0.50;;;17.80;58.80;;;;;;4990286;28;20385;-80
2022/10/28 11:30:59;;;;;;;2.50;0.60;;;17.80;59.10;;;;;;4990810;28;20472;-80
2022/10/28 11:34:05;;;;;;;1.50;0.60;;;17.70;59.00;;;;;;4982699;28;20448;-80
2022/10/28 11:36:38;;;;;;;1.13;0.77;;;17.60;59.60;;;;;;4990603;28;20507;-79
2022/10/28 11:39:31;;;;;;;2.17;0.85;;;17.60;59.70;;;;;;4990600;28;20387;-77
2022/10/28 11:42:20;;;;;;;1.38;0.73;;;17.60;60.20;;;;;;4996628;28;20524;-80
2022/10/28 11:45:19;;;;;;;1.87;0.70;;;17.50;60.40;;;;;;4990232;28;20391;-80
2022/10/28 11:47:46;;;;;;;2.37;0.90;;;17.50;60.60;;;;;;4994466;28;20456;-78
2022/10/28 11:50:42;;;;;;;0.85;0.57;;;17.40;60.90;;;;;;4994265;28;20757;-81
2022/10/28 11:53:19;;;;;;;2.15;0.60;;;17.40;60.70;;;;;;4994321;28;20404;-77
2022/10/28 11:56:08;;;;;;;1.63;0.50;;;17.40;61.70;;;;;;4994271;28;20454;-78
2022/10/28 11:58:47;;;;;;;1.83;0.60;;;17.40;61.30;;;;;;4994327;28;20566;-78
2022/10/28 12:01:32;;;;;;;2.15;0.60;;;17.50;61.60;;;;;;4990760;28;20385;-80
2022/10/28 12:04:19;;;;;;;1.27;0.75;;;17.40;62.10;;;;;;4994084;28;20772;-80
2022/10/28 12:07:04;;;;;;;1.70;0.70;;;17.40;61.70;;;;;;4994405;28;20487;-80
2022/10/28 12:09:46;;;;;;;1.95;0.70;;;17.20;62.20;;;;;;4993845;28;20396;-79
2022/10/28 12:12:34;;;;;;;1.90;0.80;;;17.30;62.50;;;;;;4993521;28;20424;-81
2022/10/28 12:15:19;;;;;;;2.72;0.77;;;17.30;63.10;;;;;;4994232;28;20479;-81
2022/10/28 12:18:01;;;;;;;2.22;0.80;;;17.20;62.80;;;;;;4993438;28;20494;-81
2022/10/28 12:20:37;;;;;;;3.30;0.90;;;17.20;63.10;;;;;;4992829;28;20900;-80
2022/10/28 12:23:13;;;;;;;2.45;0.80;;;17.20;63.40;;;;;;4994176;28;20871;-80
2022/10/28 12:25:44;;;;;;;1.65;0.80;;;17.20;62.90;;;;;;4986535;28;20424;-78
2022/10/28 12:28:29;;;;;;;1.98;0.70;;;17.20;62.70;;;;;;4996472;28;20399;-81
2022/10/28 12:30:57;;;;;;;2.15;0.70;;;17.30;63.10;;;;;;4996681;28;20446;-81
2022/10/28 12:33:47;;;;;;;2.20;0.70;;;17.20;62.60;;;;;;4996617;28;20392;-80
2022/10/28 12:36:38;;;;;;;2.90;0.70;;;17.20;63.00;;;;;;4996220;28;20415;-80
2022/10/28 12:39:30;;;;;;;2.03;0.70;;;17.20;64.00;;;;;;4996253;28;20384;-78
2022/10/28 12:42:16;;;;;;;1.50;0.60;;;17.20;63.60;;;;;;4995151;28;20488;-79
2022/10/28 12:44:44;;;;;;;2.03;0.70;;;17.10;64.10;;;;;;4994711;28;20907;-80
2022/10/28 12:47:45;;;;;;;2.30;0.80;;;17.00;64.00;;;;;;4996611;28;20748;-78
2022/10/28 12:50:31;;;;;;;2.92;0.63;;;17.10;64.30;;;;;;4991331;28;20424;-81
2022/10/28 12:53:04;;;;;;;1.92;0.63;;;17.10;64.00;;;;;;4992360;28;20403;-80
2022/10/28 12:55:51;;;;;;;2.38;0.80;;;17.00;65.20;;;;;;4992748;28;20393;-78
2022/10/28 12:58:56;;;;;;;3.70;0.60;;;17.00;65.00;;;;;;4993167;28;20425;-79
2022/10/28 13:01:26;;;;;;;1.10;0.50;;;17.10;64.70;;;;;;4987529;28;20765;-81
2022/10/28 13:03:54;;;;;;;1.20;0.50;;;17.20;64.50;;;;;;4993163;28;20393;-82
2022/10/28 13:07:05;;;;;;;1.07;0.50;;;17.30;64.60;;;;;;4991603;28;20385;-82
2022/10/28 13:09:54;;;;;;;2.13;0.60;;;17.30;64.50;;;;;;4992618;28;20389;-81
2022/10/28 13:12:39;;;;;;;1.30;0.50;;;17.30;64.40;;;;;;4993054;28;20420;-81
2022/10/28 13:15:35;;;;;;;1.30;0.60;;;17.40;64.50;;;;;;4992513;28;20388;-81
2022/10/28 13:18:37;;;;;;;1.95;0.60;;;17.40;64.60;;;;;;4971027;28;20505;-81
2022/10/28 13:21:19;;;;;;;1.58;0.60;;;17.30;64.90;;;;;;4971569;28;20458;-81